Strona główna
METAR-TAF:

METAR-TAF

Lotnisko :

New Bedford, Massachusetts, Stany Zjednoczone

Szerokość geograficzna: 41-40-31N, Długość geograficzna: 070-57-25W, wysokość: 24 m

Aktualna obserwacja pogody

Raport powstał 25 minut temu, godzina 11:02 UTC
Cisza
Temperatura 4°C
Wilgotność 93%
Ciśnienie 1007 hPa
Widzialność: 4.8 km
Zachmurzenie całkowite na wysokości 4200 ft
deszcz, zamglenie

METAR: KEWB 191102Z AUTO 00000KT 3SM RA BR OVC042 04/03 A2973 RMK AO2 P0001 T00440028

czas: 06:27 (11:27 UTC)


TAF: brakujący

Obserwacja i prognoza pogody dla ponad 4000 lotnisk (raport METAR i TAF).

Dostępne stacje oznaczono żółtymi i czerwonymi punktami na mapie.

Najedź kursorem aby zobaczyć nazwę stacji.

Kliknij aby zobaczyć obserwacje i prognozy pogody.

Aby zmienić mapę: kliknij na zielony przycisk z czarnym krzyżykiem, aby powiększyć; na zielony przycisk z myślnikiem, aby pomniejszyć; na zielone strzałki, aby przejść do map sąsiednich.


METAR-TAF: